createdAt,value
2023-03-28T00:02:43.670Z,82.90
2023-03-28T00:07:46.087Z,82.89
2023-03-28T00:12:48.585Z,82.79
2023-03-28T00:17:52.860Z,82.80
2023-03-28T00:22:55.240Z,82.72
2023-03-28T00:27:57.591Z,82.81
2023-03-28T00:32:59.905Z,82.74
2023-03-28T00:38:02.240Z,82.76
2023-03-28T00:43:04.744Z,82.78
2023-03-28T00:48:18.333Z,82.58
2023-03-28T00:53:26.735Z,82.62
2023-03-28T00:58:33.040Z,82.38
2023-03-28T01:03:35.952Z,82.21
2023-03-28T01:08:42.966Z,82.00
2023-03-28T01:13:49.215Z,82.18
2023-03-28T01:18:52.393Z,81.97
2023-03-28T01:24:11.659Z,82.00
2023-03-28T01:29:37.784Z,82.00
2023-03-28T01:35:07.449Z,82.10
2023-03-28T01:40:23.362Z,82.10
2023-03-28T01:45:54.528Z,82.20
2023-03-28T01:51:15.910Z,82.23
2023-03-28T01:56:24.900Z,82.21
2023-03-28T02:01:46.702Z,82.47
2023-03-28T02:06:51.308Z,82.47
2023-03-28T02:12:03.843Z,82.45
2023-03-28T02:17:22.177Z,82.48
2023-03-28T02:23:10.345Z,82.47
2023-03-28T02:28:32.916Z,82.63
2023-03-28T02:33:49.453Z,82.76
2023-03-28T02:39:10.759Z,82.72
2023-03-28T02:44:35.966Z,82.87
2023-03-28T02:49:52.834Z,83.03
2023-03-28T02:55:19.346Z,83.14
2023-03-28T03:00:51.521Z,82.86
2023-03-28T03:05:54.120Z,82.96
2023-03-28T03:10:56.824Z,83.12
2023-03-28T03:15:59.418Z,83.05
2023-03-28T03:21:02.069Z,82.93
2023-03-28T03:26:32.034Z,82.93
2023-03-28T03:31:37.360Z,82.94
2023-03-28T03:36:58.161Z,82.89
2023-03-28T03:42:00.749Z,82.69
2023-03-28T03:47:06.567Z,82.82
2023-03-28T03:52:15.454Z,82.79
2023-03-28T03:57:17.926Z,83.07
2023-03-28T04:02:20.990Z,82.95
2023-03-28T04:07:35.101Z,82.84
2023-03-28T04:12:38.982Z,83.08
2023-03-28T04:17:41.861Z,82.87
2023-03-28T04:22:55.030Z,83.23
2023-03-28T04:28:02.114Z,83.15
2023-03-28T04:33:08.553Z,83.58
2023-03-28T04:38:20.406Z,83.66
2023-03-28T04:43:30.787Z,83.59
2023-03-28T04:48:33.237Z,83.97
2023-03-28T04:53:38.099Z,84.05
2023-03-28T04:59:00.903Z,84.17
2023-03-28T05:04:44.564Z,84.37
2023-03-28T05:09:49.075Z,84.32
2023-03-28T05:14:51.541Z,84.34
2023-03-28T05:19:54.593Z,84.57
2023-03-28T05:24:59.580Z,84.75
2023-03-28T05:30:02.370Z,84.83
2023-03-28T05:35:08.987Z,85.19
2023-03-28T05:40:12.844Z,85.42
2023-03-28T05:45:17.991Z,85.57
2023-03-28T05:50:52.753Z,86.07
2023-03-28T05:55:56.966Z,86.81
2023-03-28T06:01:00.799Z,87.05
2023-03-28T06:06:08.928Z,87.63
2023-03-28T06:11:12.288Z,87.93
2023-03-28T06:16:30.047Z,88.27
2023-03-28T06:21:34.018Z,88.33
2023-03-28T06:26:41.205Z,88.40
2023-03-28T06:31:46.377Z,88.63
2023-03-28T06:36:48.817Z,88.84
2023-03-28T06:41:51.386Z,88.88
2023-03-28T06:46:59.390Z,88.87
2023-03-28T06:52:01.793Z,89.21
2023-03-28T06:57:05.630Z,89.13
2023-03-28T07:02:12.692Z,89.33
2023-03-28T07:07:16.454Z,89.43
2023-03-28T07:12:19.379Z,89.40
2023-03-28T07:17:25.933Z,88.74
2023-03-28T07:22:28.903Z,88.12
2023-03-28T07:27:31.467Z,87.33
2023-03-28T07:32:47.478Z,85.96
2023-03-28T07:37:56.157Z,84.87
2023-03-28T07:43:09.254Z,84.01
2023-03-28T07:48:11.678Z,82.88
2023-03-28T07:53:14.170Z,81.82
2023-03-28T07:58:17.228Z,80.89
2023-03-28T08:03:23.957Z,80.66
2023-03-28T08:08:27.037Z,80.44
2023-03-28T08:13:55.560Z,80.13
2023-03-28T08:19:09.950Z,79.47
2023-03-28T08:24:35.833Z,78.15
2023-03-28T08:29:50.974Z,77.78
2023-03-28T08:34:53.541Z,76.74
2023-03-28T08:39:57.668Z,76.17
2023-03-28T08:45:25.017Z,74.43
2023-03-28T08:50:37.757Z,74.10
2023-03-28T08:55:43.655Z,74.17
2023-03-28T09:00:46.852Z,74.75
2023-03-28T09:05:55.217Z,74.40
2023-03-28T09:11:03.909Z,73.38
2023-03-28T09:16:32.822Z,71.07
2023-03-28T09:22:50.064Z,71.19
2023-03-28T09:28:19.076Z,69.80
2023-03-28T09:33:31.738Z,70.44
2023-03-28T09:38:38.438Z,70.51
2023-03-28T09:43:50.582Z,67.55
2023-03-28T09:49:14.808Z,71.35
2023-03-28T09:54:23.959Z,69.46
2023-03-28T09:59:31.336Z,67.89
2023-03-28T10:04:40.177Z,66.98
2023-03-28T10:09:59.206Z,66.92
2023-03-28T10:15:02.896Z,66.66
2023-03-28T10:20:25.399Z,67.07
2023-03-28T10:25:40.514Z,61.94
2023-03-28T10:30:44.695Z,64.96
2023-03-28T10:36:00.852Z,61.84
2023-03-28T10:41:10.148Z,64.49
2023-03-28T10:46:45.879Z,63.54
2023-03-28T10:51:54.061Z,62.69
2023-03-28T10:57:09.139Z,62.40
2023-03-28T11:02:30.855Z,58.86
2023-03-28T11:07:42.757Z,59.48
2023-03-28T11:13:23.084Z,61.61
2023-03-28T11:18:41.233Z,60.16
2023-03-28T11:24:36.030Z,60.01
2023-03-28T11:30:16.071Z,59.39
2023-03-28T11:35:31.932Z,59.65
2023-03-28T11:41:13.649Z,58.67
2023-03-28T11:46:41.074Z,58.43
2023-03-28T11:51:53.595Z,57.53
2023-03-28T11:57:20.100Z,55.54
2023-03-28T12:02:44.813Z,54.99
2023-03-28T12:08:13.565Z,55.08
2023-03-28T12:13:46.756Z,57.06
2023-03-28T12:18:58.971Z,56.33
2023-03-28T12:24:36.284Z,54.00
2023-03-28T12:29:57.398Z,54.21
2023-03-28T12:35:05.444Z,56.91
2023-03-28T12:40:55.261Z,55.31
2023-03-28T12:46:02.752Z,56.90
2023-03-28T12:51:16.778Z,55.75
2023-03-28T12:56:22.101Z,57.96
2023-03-28T13:01:29.729Z,56.66
2023-03-28T13:06:53.241Z,57.11
2023-03-28T13:12:03.573Z,54.12
2023-03-28T13:17:21.993Z,56.39
2023-03-28T13:22:35.274Z,54.82
2023-03-28T13:27:37.728Z,57.07
2023-03-28T13:32:46.338Z,56.74
2023-03-28T13:37:48.785Z,57.43
2023-03-28T13:43:00.615Z,58.43
2023-03-28T13:48:13.195Z,57.66
2023-03-28T13:53:16.343Z,57.64
2023-03-28T13:58:19.263Z,56.77
2023-03-28T14:03:21.699Z,56.44
2023-03-28T14:08:26.106Z,57.03
2023-03-28T14:13:30.799Z,57.00
2023-03-28T14:18:41.358Z,56.33
2023-03-28T14:23:56.364Z,57.18
2023-03-28T14:29:07.679Z,57.13
2023-03-28T14:34:27.627Z,56.68
2023-03-28T14:39:32.620Z,57.51
2023-03-28T14:44:41.876Z,57.13
2023-03-28T14:49:46.069Z,57.56
2023-03-28T14:54:49.329Z,57.64
2023-03-28T14:59:52.769Z,58.76
2023-03-28T15:04:57.433Z,57.72
2023-03-28T15:10:09.747Z,57.45
2023-03-28T15:15:25.699Z,57.38
2023-03-28T15:20:33.903Z,57.06
2023-03-28T15:25:38.983Z,57.13
2023-03-28T15:30:44.052Z,57.52
2023-03-28T15:35:47.276Z,57.91
2023-03-28T15:40:51.721Z,58.25
2023-03-28T15:45:59.913Z,57.15
2023-03-28T15:51:08.733Z,57.54
2023-03-28T15:56:23.131Z,57.59
2023-03-28T16:01:31.510Z,58.23
2023-03-28T16:06:42.212Z,58.90
2023-03-28T16:11:49.996Z,59.85
2023-03-28T16:17:16.005Z,59.90
2023-03-28T16:22:29.436Z,60.11
2023-03-28T16:27:32.716Z,60.40
2023-03-28T16:32:35.035Z,60.76
2023-03-28T16:37:37.600Z,60.66
2023-03-28T16:42:39.964Z,60.88
2023-03-28T16:47:42.480Z,60.63
2023-03-28T16:52:44.803Z,61.04
2023-03-28T16:57:47.281Z,60.94
2023-03-28T17:02:51.244Z,60.92
2023-03-28T17:07:53.528Z,61.44
2023-03-28T17:12:57.126Z,61.38
2023-03-28T17:18:01.420Z,61.29
2023-03-28T17:23:04.352Z,61.29
2023-03-28T17:28:06.838Z,61.41
2023-03-28T17:33:09.579Z,61.72
2023-03-28T17:38:12.306Z,62.24
2023-03-28T17:43:14.757Z,62.52
2023-03-28T17:48:17.738Z,62.63
2023-03-28T17:53:20.205Z,62.69
2023-03-28T17:58:22.711Z,62.61
2023-03-28T18:03:25.149Z,62.78
2023-03-28T18:08:40.323Z,62.86
2023-03-28T18:13:43.086Z,63.07
2023-03-28T18:18:45.591Z,63.21
2023-03-28T18:23:48.924Z,63.35
2023-03-28T18:28:51.379Z,63.41
2023-03-28T18:33:54.836Z,63.74
2023-03-28T18:38:59.748Z,63.95
2023-03-28T18:44:02.335Z,64.16
2023-03-28T18:49:05.937Z,64.46
2023-03-28T18:54:08.397Z,64.87
2023-03-28T18:59:11.480Z,65.32
2023-03-28T19:04:13.977Z,65.35
2023-03-28T19:09:16.773Z,65.60
2023-03-28T19:14:19.162Z,65.95
2023-03-28T19:19:21.613Z,66.37
2023-03-28T19:24:24.120Z,66.60
2023-03-28T19:29:27.833Z,66.83
2023-03-28T19:34:30.244Z,67.25
2023-03-28T19:39:32.587Z,67.45
2023-03-28T19:44:34.945Z,67.67
2023-03-28T19:49:39.942Z,67.87
2023-03-28T19:54:42.318Z,68.02
2023-03-28T19:59:44.622Z,68.38
2023-03-28T20:04:46.975Z,68.38
2023-03-28T20:09:49.660Z,68.75
2023-03-28T20:14:51.980Z,69.01
2023-03-28T20:19:54.522Z,69.38
2023-03-28T20:24:57.253Z,69.36
2023-03-28T20:29:59.608Z,69.46
2023-03-28T20:35:02.153Z,69.70
2023-03-28T20:40:05.984Z,69.76
2023-03-28T20:45:09.461Z,69.92
2023-03-28T20:50:12.004Z,70.16
2023-03-28T20:55:15.311Z,70.27
2023-03-28T21:00:18.369Z,70.42
2023-03-28T21:05:22.388Z,70.79
2023-03-28T21:10:24.835Z,70.53
2023-03-28T21:15:29.382Z,70.68
2023-03-28T21:20:31.746Z,70.59
2023-03-28T21:25:34.175Z,70.88
2023-03-28T21:30:37.508Z,70.67
2023-03-28T21:35:42.831Z,71.03
2023-03-28T21:40:46.975Z,71.03
2023-03-28T21:45:49.715Z,71.17
2023-03-28T21:50:54.097Z,71.16
2023-03-28T21:55:57.081Z,71.37
2023-03-28T22:01:00.650Z,71.27
2023-03-28T22:06:03.315Z,71.41
2023-03-28T22:11:13.719Z,71.72
2023-03-28T22:16:16.562Z,71.53
2023-03-28T22:21:18.889Z,71.76
2023-03-28T22:26:21.473Z,72.00
2023-03-28T22:31:25.607Z,72.05
2023-03-28T22:36:28.055Z,71.91
2023-03-28T22:41:32.178Z,72.22
2023-03-28T22:46:34.536Z,72.34
2023-03-28T22:51:46.424Z,72.50
2023-03-28T22:56:50.043Z,72.71
2023-03-28T23:01:52.573Z,72.72
2023-03-28T23:06:55.406Z,72.72
2023-03-28T23:11:57.798Z,72.85
2023-03-28T23:17:02.648Z,72.91
2023-03-28T23:22:07.789Z,73.26
2023-03-28T23:27:10.189Z,73.16
2023-03-28T23:32:12.482Z,73.25
2023-03-28T23:37:14.836Z,73.34
2023-03-28T23:42:17.080Z,73.45
2023-03-28T23:47:20.794Z,73.59
2023-03-28T23:52:23.103Z,73.82
2023-03-28T23:57:25.544Z,73.81
